sensor_id;sensor_type;location;lat;lon;timestamp;temperature;humidity
42663;DHT22;44330;51.360;6.686;2022-08-19T00:02:24;19.00;49.10
42663;DHT22;44330;51.360;6.686;2022-08-19T00:04:49;18.90;49.00
42663;DHT22;44330;51.360;6.686;2022-08-19T00:07:19;18.80;50.80
42663;DHT22;44330;51.360;6.686;2022-08-19T00:09:44;18.80;50.60
42663;DHT22;44330;51.360;6.686;2022-08-19T00:12:11;18.80;50.40
42663;DHT22;44330;51.360;6.686;2022-08-19T00:14:37;18.80;51.40
42663;DHT22;44330;51.360;6.686;2022-08-19T00:17:04;18.80;51.80
42663;DHT22;44330;51.360;6.686;2022-08-19T00:19:32;18.70;53.60
42663;DHT22;44330;51.360;6.686;2022-08-19T00:21:58;18.70;53.80
42663;DHT22;44330;51.360;6.686;2022-08-19T00:24:25;18.70;53.90
42663;DHT22;44330;51.360;6.686;2022-08-19T00:26:51;18.70;54.20
42663;DHT22;44330;51.360;6.686;2022-08-19T00:29:20;18.60;54.30
42663;DHT22;44330;51.360;6.686;2022-08-19T00:31:47;18.60;54.70
42663;DHT22;44330;51.360;6.686;2022-08-19T00:34:14;18.50;55.60
42663;DHT22;44330;51.360;6.686;2022-08-19T00:36:40;18.50;55.60
42663;DHT22;44330;51.360;6.686;2022-08-19T00:39:07;18.50;56.20
42663;DHT22;44330;51.360;6.686;2022-08-19T00:41:35;18.50;57.90
42663;DHT22;44330;51.360;6.686;2022-08-19T00:44:08;18.50;58.90
42663;DHT22;44330;51.360;6.686;2022-08-19T00:46:35;18.40;59.60
42663;DHT22;44330;51.360;6.686;2022-08-19T00:49:15;18.40;60.20
42663;DHT22;44330;51.360;6.686;2022-08-19T00:51:43;18.40;60.20
42663;DHT22;44330;51.360;6.686;2022-08-19T00:54:09;18.40;59.80
42663;DHT22;44330;51.360;6.686;2022-08-19T00:56:35;18.40;58.90
42663;DHT22;44330;51.360;6.686;2022-08-19T00:59:02;18.40;59.10
42663;DHT22;44330;51.360;6.686;2022-08-19T01:01:28;18.30;58.90
42663;DHT22;44330;51.360;6.686;2022-08-19T01:03:54;18.30;59.50
42663;DHT22;44330;51.360;6.686;2022-08-19T01:06:20;18.30;60.40
42663;DHT22;44330;51.360;6.686;2022-08-19T01:08:45;18.20;61.00
42663;DHT22;44330;51.360;6.686;2022-08-19T01:11:11;18.20;62.90
42663;DHT22;44330;51.360;6.686;2022-08-19T01:13:37;18.10;63.70
42663;DHT22;44330;51.360;6.686;2022-08-19T01:16:08;18.10;64.60
42663;DHT22;44330;51.360;6.686;2022-08-19T01:18:40;18.10;66.30
42663;DHT22;44330;51.360;6.686;2022-08-19T01:21:22;18.10;66.50
42663;DHT22;44330;51.360;6.686;2022-08-19T01:23:50;18.00;67.00
42663;DHT22;44330;51.360;6.686;2022-08-19T01:26:22;18.00;67.70
42663;DHT22;44330;51.360;6.686;2022-08-19T01:28:52;18.00;67.70
42663;DHT22;44330;51.360;6.686;2022-08-19T01:31:21;18.00;68.50
42663;DHT22;44330;51.360;6.686;2022-08-19T01:33:47;17.90;67.90
42663;DHT22;44330;51.360;6.686;2022-08-19T01:36:21;17.90;67.90
42663;DHT22;44330;51.360;6.686;2022-08-19T01:38:48;18.00;68.40
42663;DHT22;44330;51.360;6.686;2022-08-19T01:41:14;17.90;68.40
42663;DHT22;44330;51.360;6.686;2022-08-19T01:43:43;17.90;68.40
42663;DHT22;44330;51.360;6.686;2022-08-19T01:46:09;17.90;68.50
42663;DHT22;44330;51.360;6.686;2022-08-19T01:48:41;17.90;68.50
42663;DHT22;44330;51.360;6.686;2022-08-19T01:51:08;17.80;68.50
42663;DHT22;44330;51.360;6.686;2022-08-19T01:53:34;17.80;68.50
42663;DHT22;44330;51.360;6.686;2022-08-19T01:56:00;17.80;68.40
42663;DHT22;44330;51.360;6.686;2022-08-19T01:58:35;17.80;68.80
42663;DHT22;44330;51.360;6.686;2022-08-19T02:01:03;17.80;69.00
42663;DHT22;44330;51.360;6.686;2022-08-19T02:03:29;17.80;69.60
42663;DHT22;44330;51.360;6.686;2022-08-19T02:06:00;17.70;70.30
42663;DHT22;44330;51.360;6.686;2022-08-19T02:08:27;17.70;70.10
42663;DHT22;44330;51.360;6.686;2022-08-19T02:10:53;17.70;70.20
42663;DHT22;44330;51.360;6.686;2022-08-19T02:13:19;17.70;70.90
42663;DHT22;44330;51.360;6.686;2022-08-19T02:15:45;17.60;71.00
42663;DHT22;44330;51.360;6.686;2022-08-19T02:18:10;17.70;71.30
42663;DHT22;44330;51.360;6.686;2022-08-19T02:20:37;17.60;71.60
42663;DHT22;44330;51.360;6.686;2022-08-19T02:23:04;17.60;71.60
42663;DHT22;44330;51.360;6.686;2022-08-19T02:25:30;17.60;71.50
42663;DHT22;44330;51.360;6.686;2022-08-19T02:27:55;17.60;71.40
42663;DHT22;44330;51.360;6.686;2022-08-19T02:30:22;17.50;71.20
42663;DHT22;44330;51.360;6.686;2022-08-19T02:32:47;17.50;71.50
42663;DHT22;44330;51.360;6.686;2022-08-19T02:35:13;17.50;71.80
42663;DHT22;44330;51.360;6.686;2022-08-19T02:37:40;17.50;71.90
42663;DHT22;44330;51.360;6.686;2022-08-19T02:40:26;17.50;72.10
42663;DHT22;44330;51.360;6.686;2022-08-19T02:42:52;17.40;72.20
42663;DHT22;44330;51.360;6.686;2022-08-19T02:45:17;17.40;72.60
42663;DHT22;44330;51.360;6.686;2022-08-19T02:47:43;17.50;73.80
42663;DHT22;44330;51.360;6.686;2022-08-19T02:50:09;17.40;73.90
42663;DHT22;44330;51.360;6.686;2022-08-19T02:52:35;17.50;74.60
42663;DHT22;44330;51.360;6.686;2022-08-19T02:55:01;17.50;74.90
42663;DHT22;44330;51.360;6.686;2022-08-19T02:57:27;17.50;75.40
42663;DHT22;44330;51.360;6.686;2022-08-19T02:59:53;17.40;76.00
42663;DHT22;44330;51.360;6.686;2022-08-19T03:02:18;17.40;76.40
42663;DHT22;44330;51.360;6.686;2022-08-19T03:04:44;17.40;76.40
42663;DHT22;44330;51.360;6.686;2022-08-19T03:07:13;17.50;76.00
42663;DHT22;44330;51.360;6.686;2022-08-19T03:09:39;17.40;76.20
42663;DHT22;44330;51.360;6.686;2022-08-19T03:12:05;17.40;76.20
42663;DHT22;44330;51.360;6.686;2022-08-19T03:14:32;17.40;76.20
42663;DHT22;44330;51.360;6.686;2022-08-19T03:16:58;17.40;76.00
42663;DHT22;44330;51.360;6.686;2022-08-19T03:19:23;17.30;75.80
42663;DHT22;44330;51.360;6.686;2022-08-19T03:21:50;17.30;75.60
42663;DHT22;44330;51.360;6.686;2022-08-19T03:24:17;17.30;75.70
42663;DHT22;44330;51.360;6.686;2022-08-19T03:26:46;17.20;75.80
42663;DHT22;44330;51.360;6.686;2022-08-19T03:29:12;17.30;76.00
42663;DHT22;44330;51.360;6.686;2022-08-19T03:31:39;17.30;76.60
42663;DHT22;44330;51.360;6.686;2022-08-19T03:34:06;17.30;76.60
42663;DHT22;44330;51.360;6.686;2022-08-19T03:36:32;17.30;76.70
42663;DHT22;44330;51.360;6.686;2022-08-19T03:39:00;17.30;76.80
42663;DHT22;44330;51.360;6.686;2022-08-19T03:41:31;17.20;76.60
42663;DHT22;44330;51.360;6.686;2022-08-19T03:43:57;17.20;77.10
42663;DHT22;44330;51.360;6.686;2022-08-19T03:46:27;17.20;77.30
42663;DHT22;44330;51.360;6.686;2022-08-19T03:48:56;17.20;77.50
42663;DHT22;44330;51.360;6.686;2022-08-19T03:51:28;17.20;77.30
42663;DHT22;44330;51.360;6.686;2022-08-19T03:53:54;17.20;77.40
42663;DHT22;44330;51.360;6.686;2022-08-19T03:56:21;17.20;77.80
42663;DHT22;44330;51.360;6.686;2022-08-19T03:58:46;17.20;77.80
42663;DHT22;44330;51.360;6.686;2022-08-19T04:01:16;17.20;78.00
42663;DHT22;44330;51.360;6.686;2022-08-19T04:03:42;17.20;78.00
42663;DHT22;44330;51.360;6.686;2022-08-19T04:06:13;17.20;78.00
42663;DHT22;44330;51.360;6.686;2022-08-19T04:08:43;17.30;78.50
42663;DHT22;44330;51.360;6.686;2022-08-19T04:11:10;17.30;78.70
42663;DHT22;44330;51.360;6.686;2022-08-19T04:13:36;17.30;78.80
42663;DHT22;44330;51.360;6.686;2022-08-19T04:16:02;17.30;78.90
42663;DHT22;44330;51.360;6.686;2022-08-19T04:18:28;17.30;79.10
42663;DHT22;44330;51.360;6.686;2022-08-19T04:20:55;17.30;79.30
42663;DHT22;44330;51.360;6.686;2022-08-19T04:23:22;17.30;79.80
42663;DHT22;44330;51.360;6.686;2022-08-19T04:25:49;17.30;79.80
42663;DHT22;44330;51.360;6.686;2022-08-19T04:28:14;17.30;79.70
42663;DHT22;44330;51.360;6.686;2022-08-19T04:30:46;17.30;79.70
42663;DHT22;44330;51.360;6.686;2022-08-19T04:33:14;17.30;79.60
42663;DHT22;44330;51.360;6.686;2022-08-19T04:35:45;17.20;79.70
42663;DHT22;44330;51.360;6.686;2022-08-19T04:38:11;17.20;79.80
42663;DHT22;44330;51.360;6.686;2022-08-19T04:40:45;17.20;79.70
42663;DHT22;44330;51.360;6.686;2022-08-19T04:43:30;17.20;79.90
42663;DHT22;44330;51.360;6.686;2022-08-19T04:45:56;17.10;79.90
42663;DHT22;44330;51.360;6.686;2022-08-19T04:48:22;17.10;79.80
42663;DHT22;44330;51.360;6.686;2022-08-19T04:50:56;17.10;79.70
42663;DHT22;44330;51.360;6.686;2022-08-19T04:53:29;17.10;79.60
42663;DHT22;44330;51.360;6.686;2022-08-19T04:55:56;17.10;79.50
42663;DHT22;44330;51.360;6.686;2022-08-19T04:58:24;17.10;79.60
42663;DHT22;44330;51.360;6.686;2022-08-19T05:00:50;17.10;79.80
42663;DHT22;44330;51.360;6.686;2022-08-19T05:03:16;17.10;79.90
42663;DHT22;44330;51.360;6.686;2022-08-19T05:05:43;17.20;80.30
42663;DHT22;44330;51.360;6.686;2022-08-19T05:08:10;17.20;80.40
42663;DHT22;44330;51.360;6.686;2022-08-19T05:10:39;17.30;80.60
42663;DHT22;44330;51.360;6.686;2022-08-19T05:13:05;17.30;80.60
42663;DHT22;44330;51.360;6.686;2022-08-19T05:15:31;17.30;80.80
42663;DHT22;44330;51.360;6.686;2022-08-19T05:17:56;17.30;81.00
42663;DHT22;44330;51.360;6.686;2022-08-19T05:20:40;17.30;81.20
42663;DHT22;44330;51.360;6.686;2022-08-19T05:23:25;17.40;81.40
42663;DHT22;44330;51.360;6.686;2022-08-19T05:25:51;17.40;81.50
42663;DHT22;44330;51.360;6.686;2022-08-19T05:28:19;17.60;82.00
42663;DHT22;44330;51.360;6.686;2022-08-19T05:30:45;17.60;81.80
42663;DHT22;44330;51.360;6.686;2022-08-19T05:33:11;17.60;81.60
42663;DHT22;44330;51.360;6.686;2022-08-19T05:35:38;17.70;81.80
42663;DHT22;44330;51.360;6.686;2022-08-19T05:38:05;17.70;81.80
42663;DHT22;44330;51.360;6.686;2022-08-19T05:40:34;17.70;81.80
42663;DHT22;44330;51.360;6.686;2022-08-19T05:43:02;17.80;81.70
42663;DHT22;44330;51.360;6.686;2022-08-19T05:45:27;17.80;81.30
42663;DHT22;44330;51.360;6.686;2022-08-19T05:47:53;17.90;81.00
42663;DHT22;44330;51.360;6.686;2022-08-19T05:50:19;17.90;80.40
42663;DHT22;44330;51.360;6.686;2022-08-19T05:52:45;18.00;80.20
42663;DHT22;44330;51.360;6.686;2022-08-19T05:55:11;18.10;79.90
42663;DHT22;44330;51.360;6.686;2022-08-19T05:57:36;18.10;80.00
42663;DHT22;44330;51.360;6.686;2022-08-19T06:00:06;18.20;80.00
42663;DHT22;44330;51.360;6.686;2022-08-19T06:02:36;18.20;79.90
42663;DHT22;44330;51.360;6.686;2022-08-19T06:05:05;18.30;79.70
42663;DHT22;44330;51.360;6.686;2022-08-19T06:07:32;18.30;79.60
42663;DHT22;44330;51.360;6.686;2022-08-19T06:09:58;18.50;79.70
42663;DHT22;44330;51.360;6.686;2022-08-19T06:12:24;18.50;79.20
42663;DHT22;44330;51.360;6.686;2022-08-19T06:14:53;18.60;78.50
42663;DHT22;44330;51.360;6.686;2022-08-19T06:17:20;18.60;78.60
42663;DHT22;44330;51.360;6.686;2022-08-19T06:19:46;18.80;78.30
42663;DHT22;44330;51.360;6.686;2022-08-19T06:22:11;18.80;77.80
42663;DHT22;44330;51.360;6.686;2022-08-19T06:24:38;18.90;77.50
42663;DHT22;44330;51.360;6.686;2022-08-19T06:27:04;19.00;76.90
42663;DHT22;44330;51.360;6.686;2022-08-19T06:29:31;19.10;75.40
42663;DHT22;44330;51.360;6.686;2022-08-19T06:31:59;19.20;73.80
42663;DHT22;44330;51.360;6.686;2022-08-19T06:34:26;19.40;71.90
42663;DHT22;44330;51.360;6.686;2022-08-19T06:36:54;19.50;69.90
42663;DHT22;44330;51.360;6.686;2022-08-19T06:39:26;19.60;69.60
42663;DHT22;44330;51.360;6.686;2022-08-19T06:41:55;19.60;69.70
42663;DHT22;44330;51.360;6.686;2022-08-19T06:44:22;19.80;67.10
42663;DHT22;44330;51.360;6.686;2022-08-19T06:46:48;19.80;66.10
42663;DHT22;44330;51.360;6.686;2022-08-19T06:49:17;19.90;66.00
42663;DHT22;44330;51.360;6.686;2022-08-19T06:51:44;20.10;62.20
42663;DHT22;44330;51.360;6.686;2022-08-19T06:54:11;20.20;61.20
42663;DHT22;44330;51.360;6.686;2022-08-19T06:56:37;20.30;59.30
42663;DHT22;44330;51.360;6.686;2022-08-19T06:59:09;20.40;55.20
42663;DHT22;44330;51.360;6.686;2022-08-19T07:01:41;20.50;55.10
42663;DHT22;44330;51.360;6.686;2022-08-19T07:04:08;20.70;54.90
42663;DHT22;44330;51.360;6.686;2022-08-19T07:06:35;20.80;49.50
42663;DHT22;44330;51.360;6.686;2022-08-19T07:09:06;21.00;43.90
42663;DHT22;44330;51.360;6.686;2022-08-19T07:11:32;21.20;39.80
42663;DHT22;44330;51.360;6.686;2022-08-19T07:13:59;21.50;32.80
42663;DHT22;44330;51.360;6.686;2022-08-19T07:16:25;21.70;26.30
42663;DHT22;44330;51.360;6.686;2022-08-19T07:18:51;21.90;20.60
42663;DHT22;44330;51.360;6.686;2022-08-19T07:21:24;22.00;20.90
42663;DHT22;44330;51.360;6.686;2022-08-19T07:23:51;22.20;17.00
42663;DHT22;44330;51.360;6.686;2022-08-19T07:26:23;22.30;16.20
42663;DHT22;44330;51.360;6.686;2022-08-19T07:28:49;22.60;12.70
42663;DHT22;44330;51.360;6.686;2022-08-19T07:31:22;22.70;9.20
42663;DHT22;44330;51.360;6.686;2022-08-19T07:33:49;23.00;6.00
42663;DHT22;44330;51.360;6.686;2022-08-19T07:36:19;23.00;1.00
42663;DHT22;44330;51.360;6.686;2022-08-19T07:38:46;23.20;6.70
42663;DHT22;44330;51.360;6.686;2022-08-19T07:41:16;23.30;1.00
42663;DHT22;44330;51.360;6.686;2022-08-19T07:43:41;23.40;1.00
42663;DHT22;44330;51.360;6.686;2022-08-19T07:46:09;23.40;1.00
42663;DHT22;44330;51.360;6.686;2022-08-19T07:48:35;23.50;1.00
42663;DHT22;44330;51.360;6.686;2022-08-19T07:51:04;23.80;1.00
42663;DHT22;44330;51.360;6.686;2022-08-19T07:53:31;24.00;1.00
42663;DHT22;44330;51.360;6.686;2022-08-19T07:55:58;24.10;1.00
42663;DHT22;44330;51.360;6.686;2022-08-19T07:58:31;24.40;1.00
42663;DHT22;44330;51.360;6.686;2022-08-19T08:00:57;24.40;1.00
42663;DHT22;44330;51.360;6.686;2022-08-19T08:03:23;24.70;1.00
42663;DHT22;44330;51.360;6.686;2022-08-19T08:06:09;24.80;99.90
42663;DHT22;44330;51.360;6.686;2022-08-19T08:08:53;24.90;99.90
42663;DHT22;44330;51.360;6.686;2022-08-19T08:11:43;24.90;99.90
42663;DHT22;44330;51.360;6.686;2022-08-19T08:14:17;24.90;99.90
42663;DHT22;44330;51.360;6.686;2022-08-19T08:16:43;24.80;99.90
42663;DHT22;44330;51.360;6.686;2022-08-19T08:19:11;24.70;99.90
42663;DHT22;44330;51.360;6.686;2022-08-19T08:21:36;24.60;99.90
42663;DHT22;44330;51.360;6.686;2022-08-19T08:24:02;24.20;99.90
42663;DHT22;44330;51.360;6.686;2022-08-19T08:26:28;24.10;1.00
42663;DHT22;44330;51.360;6.686;2022-08-19T08:28:54;24.10;1.00
42663;DHT22;44330;51.360;6.686;2022-08-19T08:31:20;24.40;1.00
42663;DHT22;44330;51.360;6.686;2022-08-19T08:33:46;24.50;1.00
42663;DHT22;44330;51.360;6.686;2022-08-19T08:36:13;24.50;1.00
42663;DHT22;44330;51.360;6.686;2022-08-19T08:38:42;24.60;1.00
42663;DHT22;44330;51.360;6.686;2022-08-19T08:44:10;24.70;99.90
42663;DHT22;44330;51.360;6.686;2022-08-19T08:46:44;24.90;99.90
42663;DHT22;44330;51.360;6.686;2022-08-19T08:49:35;25.00;99.90
42663;DHT22;44330;51.360;6.686;2022-08-19T08:52:21;25.00;99.90
42663;DHT22;44330;51.360;6.686;2022-08-19T08:54:50;25.10;99.90
42663;DHT22;44330;51.360;6.686;2022-08-19T08:57:39;25.20;99.90
42663;DHT22;44330;51.360;6.686;2022-08-19T09:00:12;25.40;36.40
42663;DHT22;44330;51.360;6.686;2022-08-19T09:02:40;25.60;44.70
42663;DHT22;44330;51.360;6.686;2022-08-19T09:05:06;25.80;99.90
42663;DHT22;44330;51.360;6.686;2022-08-19T09:10:07;26.00;20.80
42663;DHT22;44330;51.360;6.686;2022-08-19T09:15:17;26.20;99.90
42663;DHT22;44330;51.360;6.686;2022-08-19T09:17:43;26.30;99.90
42663;DHT22;44330;51.360;6.686;2022-08-19T09:22:36;26.60;1.00
42663;DHT22;44330;51.360;6.686;2022-08-19T09:25:03;26.80;15.60
42663;DHT22;44330;51.360;6.686;2022-08-19T09:27:30;27.00;99.90
42663;DHT22;44330;51.360;6.686;2022-08-19T09:29:57;27.10;99.90
42663;DHT22;44330;51.360;6.686;2022-08-19T09:32:23;27.20;1.00
42663;DHT22;44330;51.360;6.686;2022-08-19T09:34:49;27.10;86.80
42663;DHT22;44330;51.360;6.686;2022-08-19T09:37:15;27.10;99.90
42663;DHT22;44330;51.360;6.686;2022-08-19T09:39:40;27.20;1.00
42663;DHT22;44330;51.360;6.686;2022-08-19T09:42:08;27.10;99.90
42663;DHT22;44330;51.360;6.686;2022-08-19T09:44:39;27.30;99.90
42663;DHT22;44330;51.360;6.686;2022-08-19T09:47:05;27.40;99.90
42663;DHT22;44330;51.360;6.686;2022-08-19T09:49:32;27.30;99.90
42663;DHT22;44330;51.360;6.686;2022-08-19T09:51:58;27.60;99.90
42663;DHT22;44330;51.360;6.686;2022-08-19T09:54:24;27.80;99.90
42663;DHT22;44330;51.360;6.686;2022-08-19T09:56:49;27.70;99.90
42663;DHT22;44330;51.360;6.686;2022-08-19T09:59:15;27.70;99.90
42663;DHT22;44330;51.360;6.686;2022-08-19T10:01:41;27.60;99.90
42663;DHT22;44330;51.360;6.686;2022-08-19T10:04:07;27.50;99.90
42663;DHT22;44330;51.360;6.686;2022-08-19T10:06:37;27.80;99.90
42663;DHT22;44330;51.360;6.686;2022-08-19T10:09:05;28.10;99.90
42663;DHT22;44330;51.360;6.686;2022-08-19T10:11:32;28.10;99.90
42663;DHT22;44330;51.360;6.686;2022-08-19T10:13:58;28.10;99.90
42663;DHT22;44330;51.360;6.686;2022-08-19T10:16:25;27.70;99.90
42663;DHT22;44330;51.360;6.686;2022-08-19T10:18:51;27.30;99.90
42663;DHT22;44330;51.360;6.686;2022-08-19T10:21:26;27.20;99.90
42663;DHT22;44330;51.360;6.686;2022-08-19T10:23:55;27.20;99.90
42663;DHT22;44330;51.360;6.686;2022-08-19T10:26:30;26.90;99.90
42663;DHT22;44330;51.360;6.686;2022-08-19T10:28:56;27.20;99.90
42663;DHT22;44330;51.360;6.686;2022-08-19T10:31:25;27.50;99.90
42663;DHT22;44330;51.360;6.686;2022-08-19T10:33:51;27.70;99.90
42663;DHT22;44330;51.360;6.686;2022-08-19T10:36:25;27.80;99.90
42663;DHT22;44330;51.360;6.686;2022-08-19T10:38:52;28.00;99.90
42663;DHT22;44330;51.360;6.686;2022-08-19T10:41:23;28.10;99.90
42663;DHT22;44330;51.360;6.686;2022-08-19T10:43:54;28.00;99.90
42663;DHT22;44330;51.360;6.686;2022-08-19T10:46:21;28.00;99.90
42663;DHT22;44330;51.360;6.686;2022-08-19T10:48:48;28.10;99.90
42663;DHT22;44330;51.360;6.686;2022-08-19T10:51:14;28.30;99.90
42663;DHT22;44330;51.360;6.686;2022-08-19T10:53:59;28.50;99.90
42663;DHT22;44330;51.360;6.686;2022-08-19T10:56:26;28.70;99.90
42663;DHT22;44330;51.360;6.686;2022-08-19T10:59:13;28.60;99.90
42663;DHT22;44330;51.360;6.686;2022-08-19T11:01:42;28.50;99.90
42663;DHT22;44330;51.360;6.686;2022-08-19T11:04:08;28.70;99.90
42663;DHT22;44330;51.360;6.686;2022-08-19T11:06:37;29.20;99.90
42663;DHT22;44330;51.360;6.686;2022-08-19T11:09:04;29.40;99.90
42663;DHT22;44330;51.360;6.686;2022-08-19T11:11:29;29.60;94.80
42663;DHT22;44330;51.360;6.686;2022-08-19T11:13:55;29.70;90.20
42663;DHT22;44330;51.360;6.686;2022-08-19T11:16:23;29.90;78.80
42663;DHT22;44330;51.360;6.686;2022-08-19T11:18:50;30.20;69.10
42663;DHT22;44330;51.360;6.686;2022-08-19T11:21:23;30.30;66.60
42663;DHT22;44330;51.360;6.686;2022-08-19T11:23:51;30.30;53.90
42663;DHT22;44330;51.360;6.686;2022-08-19T11:26:18;30.50;23.50
42663;DHT22;44330;51.360;6.686;2022-08-19T11:28:45;30.60;20.80
42663;DHT22;44330;51.360;6.686;2022-08-19T11:31:17;30.30;4.00
42663;DHT22;44330;51.360;6.686;2022-08-19T11:33:43;30.00;2.80
42663;DHT22;44330;51.360;6.686;2022-08-19T11:36:08;29.90;7.70
42663;DHT22;44330;51.360;6.686;2022-08-19T11:38:35;29.60;4.00
42663;DHT22;44330;51.360;6.686;2022-08-19T11:41:04;29.70;20.00
42663;DHT22;44330;51.360;6.686;2022-08-19T11:43:30;29.90;4.50
42663;DHT22;44330;51.360;6.686;2022-08-19T11:45:56;29.80;1.00
42663;DHT22;44330;51.360;6.686;2022-08-19T11:48:22;29.70;1.00
42663;DHT22;44330;51.360;6.686;2022-08-19T11:50:50;29.70;1.00
42663;DHT22;44330;51.360;6.686;2022-08-19T11:53:17;29.80;7.20
42663;DHT22;44330;51.360;6.686;2022-08-19T11:55:44;30.30;10.20
42663;DHT22;44330;51.360;6.686;2022-08-19T11:58:11;30.70;2.60
42663;DHT22;44330;51.360;6.686;2022-08-19T12:00:38;30.80;1.00
42663;DHT22;44330;51.360;6.686;2022-08-19T12:03:04;30.80;1.00
42663;DHT22;44330;51.360;6.686;2022-08-19T12:05:29;30.80;1.00
42663;DHT22;44330;51.360;6.686;2022-08-19T12:07:55;30.80;1.00
42663;DHT22;44330;51.360;6.686;2022-08-19T12:10:21;30.90;1.00
42663;DHT22;44330;51.360;6.686;2022-08-19T12:12:47;30.70;1.00
42663;DHT22;44330;51.360;6.686;2022-08-19T12:15:14;30.80;1.00
42663;DHT22;44330;51.360;6.686;2022-08-19T12:17:40;30.90;1.00
42663;DHT22;44330;51.360;6.686;2022-08-19T12:20:08;30.90;1.00
42663;DHT22;44330;51.360;6.686;2022-08-19T12:22:35;30.80;1.00
42663;DHT22;44330;51.360;6.686;2022-08-19T12:25:01;31.10;1.00
42663;DHT22;44330;51.360;6.686;2022-08-19T12:27:27;31.20;1.00
42663;DHT22;44330;51.360;6.686;2022-08-19T12:29:52;31.30;1.00
42663;DHT22;44330;51.360;6.686;2022-08-19T12:32:18;31.30;1.00
42663;DHT22;44330;51.360;6.686;2022-08-19T12:34:44;31.60;1.00
42663;DHT22;44330;51.360;6.686;2022-08-19T12:37:09;31.60;1.00
42663;DHT22;44330;51.360;6.686;2022-08-19T12:39:38;31.40;1.00
42663;DHT22;44330;51.360;6.686;2022-08-19T12:42:05;30.60;1.00
42663;DHT22;44330;51.360;6.686;2022-08-19T12:44:31;30.60;1.00
42663;DHT22;44330;51.360;6.686;2022-08-19T12:46:58;30.80;1.00
42663;DHT22;44330;51.360;6.686;2022-08-19T12:49:23;30.50;1.00
42663;DHT22;44330;51.360;6.686;2022-08-19T12:51:50;30.50;1.00
42663;DHT22;44330;51.360;6.686;2022-08-19T12:54:15;30.90;1.00
42663;DHT22;44330;51.360;6.686;2022-08-19T12:56:41;31.10;1.00
42663;DHT22;44330;51.360;6.686;2022-08-19T12:59:09;31.10;99.90
42663;DHT22;44330;51.360;6.686;2022-08-19T13:01:36;30.90;99.90
42663;DHT22;44330;51.360;6.686;2022-08-19T13:04:02;30.90;1.00
42663;DHT22;44330;51.360;6.686;2022-08-19T13:06:27;31.10;1.00
42663;DHT22;44330;51.360;6.686;2022-08-19T13:08:54;31.00;99.90
42663;DHT22;44330;51.360;6.686;2022-08-19T13:11:20;31.10;1.00
42663;DHT22;44330;51.360;6.686;2022-08-19T13:13:50;31.30;99.90
42663;DHT22;44330;51.360;6.686;2022-08-19T13:16:16;31.50;99.90
42663;DHT22;44330;51.360;6.686;2022-08-19T13:18:44;31.50;99.90
42663;DHT22;44330;51.360;6.686;2022-08-19T13:21:10;31.70;99.90
42663;DHT22;44330;51.360;6.686;2022-08-19T13:23:40;31.90;99.90
42663;DHT22;44330;51.360;6.686;2022-08-19T13:26:08;31.90;99.90
42663;DHT22;44330;51.360;6.686;2022-08-19T13:28:34;31.80;99.90
42663;DHT22;44330;51.360;6.686;2022-08-19T13:31:20;31.60;99.90
42663;DHT22;44330;51.360;6.686;2022-08-19T13:34:05;31.30;99.90
42663;DHT22;44330;51.360;6.686;2022-08-19T13:36:34;31.20;99.90
42663;DHT22;44330;51.360;6.686;2022-08-19T13:39:00;31.10;99.90
42663;DHT22;44330;51.360;6.686;2022-08-19T13:41:26;31.10;99.90
42663;DHT22;44330;51.360;6.686;2022-08-19T13:43:53;31.40;99.90
42663;DHT22;44330;51.360;6.686;2022-08-19T13:46:19;31.40;99.90
42663;DHT22;44330;51.360;6.686;2022-08-19T13:48:46;31.70;99.90
42663;DHT22;44330;51.360;6.686;2022-08-19T13:51:12;31.60;99.90
42663;DHT22;44330;51.360;6.686;2022-08-19T13:53:38;31.70;99.90
42663;DHT22;44330;51.360;6.686;2022-08-19T13:56:13;31.70;99.90
42663;DHT22;44330;51.360;6.686;2022-08-19T13:58:39;31.70;99.90
42663;DHT22;44330;51.360;6.686;2022-08-19T14:01:06;31.80;99.90
42663;DHT22;44330;51.360;6.686;2022-08-19T14:03:33;31.90;99.90
42663;DHT22;44330;51.360;6.686;2022-08-19T14:05:59;32.00;99.90
42663;DHT22;44330;51.360;6.686;2022-08-19T14:08:25;31.40;99.90
42663;DHT22;44330;51.360;6.686;2022-08-19T14:10:53;31.60;99.90
42663;DHT22;44330;51.360;6.686;2022-08-19T14:13:22;31.40;99.90
42663;DHT22;44330;51.360;6.686;2022-08-19T14:15:49;31.10;99.90
42663;DHT22;44330;51.360;6.686;2022-08-19T14:18:17;31.10;99.90
42663;DHT22;44330;51.360;6.686;2022-08-19T14:20:43;31.20;99.90
42663;DHT22;44330;51.360;6.686;2022-08-19T14:23:09;31.10;99.90
42663;DHT22;44330;51.360;6.686;2022-08-19T14:25:35;31.50;99.90
42663;DHT22;44330;51.360;6.686;2022-08-19T14:28:00;31.20;99.90
42663;DHT22;44330;51.360;6.686;2022-08-19T14:30:32;31.20;99.90
42663;DHT22;44330;51.360;6.686;2022-08-19T14:32:59;31.40;99.90
42663;DHT22;44330;51.360;6.686;2022-08-19T14:35:27;31.00;99.90
42663;DHT22;44330;51.360;6.686;2022-08-19T14:37:56;30.90;99.90
42663;DHT22;44330;51.360;6.686;2022-08-19T14:40:26;30.90;99.90
42663;DHT22;44330;51.360;6.686;2022-08-19T14:43:03;31.00;99.90
42663;DHT22;44330;51.360;6.686;2022-08-19T14:45:39;31.10;99.90
42663;DHT22;44330;51.360;6.686;2022-08-19T14:48:06;31.20;99.90
42663;DHT22;44330;51.360;6.686;2022-08-19T14:50:33;30.90;99.90
42663;DHT22;44330;51.360;6.686;2022-08-19T14:53:07;30.90;99.90
42663;DHT22;44330;51.360;6.686;2022-08-19T14:55:34;30.90;99.90
42663;DHT22;44330;51.360;6.686;2022-08-19T14:58:00;30.70;99.90
42663;DHT22;44330;51.360;6.686;2022-08-19T15:00:26;30.50;99.90
42663;DHT22;44330;51.360;6.686;2022-08-19T15:02:52;30.60;99.90
42663;DHT22;44330;51.360;6.686;2022-08-19T15:05:20;30.50;99.90
42663;DHT22;44330;51.360;6.686;2022-08-19T15:07:46;30.30;99.90
42663;DHT22;44330;51.360;6.686;2022-08-19T15:10:14;30.40;99.90
42663;DHT22;44330;51.360;6.686;2022-08-19T15:12:40;30.40;99.90
42663;DHT22;44330;51.360;6.686;2022-08-19T15:15:09;30.20;99.90
42663;DHT22;44330;51.360;6.686;2022-08-19T15:17:38;30.40;99.90
42663;DHT22;44330;51.360;6.686;2022-08-19T15:20:06;30.40;99.90
42663;DHT22;44330;51.360;6.686;2022-08-19T15:22:32;30.00;99.90
42663;DHT22;44330;51.360;6.686;2022-08-19T15:24:59;30.00;99.90
42663;DHT22;44330;51.360;6.686;2022-08-19T15:27:26;30.20;99.90
42663;DHT22;44330;51.360;6.686;2022-08-19T15:29:52;30.20;99.90
42663;DHT22;44330;51.360;6.686;2022-08-19T15:32:17;30.10;99.90
42663;DHT22;44330;51.360;6.686;2022-08-19T15:34:43;30.40;99.90
42663;DHT22;44330;51.360;6.686;2022-08-19T15:37:09;30.50;99.90
42663;DHT22;44330;51.360;6.686;2022-08-19T15:39:34;30.60;99.90
42663;DHT22;44330;51.360;6.686;2022-08-19T15:42:00;30.50;99.90
42663;DHT22;44330;51.360;6.686;2022-08-19T15:44:27;30.40;99.90
42663;DHT22;44330;51.360;6.686;2022-08-19T15:46:52;30.40;99.90
42663;DHT22;44330;51.360;6.686;2022-08-19T15:49:18;30.30;99.90